createdAt,value
2022-08-31T00:00:14.246Z,2.88
2022-08-31T00:02:59.775Z,3.25
2022-08-31T00:05:28.207Z,3.00
2022-08-31T00:07:55.904Z,2.85
2022-08-31T00:10:32.388Z,3.22
2022-08-31T00:13:02.990Z,3.15
2022-08-31T00:15:30.425Z,2.90
2022-08-31T00:17:57.903Z,2.78
2022-08-31T00:20:33.266Z,2.95
2022-08-31T00:23:07.169Z,3.47
2022-08-31T00:25:35.246Z,2.72
2022-08-31T00:28:03.850Z,2.97
2022-08-31T00:30:32.051Z,2.78
2022-08-31T00:32:59.432Z,3.47
2022-08-31T00:35:27.944Z,3.35
2022-08-31T00:37:55.496Z,3.00
2022-08-31T00:40:23.285Z,2.80
2022-08-31T00:42:50.910Z,3.13
2022-08-31T00:45:18.378Z,2.67
2022-08-31T00:47:45.817Z,2.90
2022-08-31T00:50:15.278Z,2.67
2022-08-31T00:52:46.809Z,2.65
2022-08-31T00:55:21.905Z,2.78
2022-08-31T00:57:51.950Z,3.72
2022-08-31T01:00:22.465Z,2.80
2022-08-31T01:02:50.020Z,2.63
2022-08-31T01:05:17.987Z,2.60
2022-08-31T01:07:49.456Z,3.00
2022-08-31T01:10:19.953Z,2.55
2022-08-31T01:12:48.129Z,2.30
2022-08-31T01:15:18.079Z,3.05
2022-08-31T01:17:46.884Z,2.35
2022-08-31T01:20:22.490Z,2.72
2022-08-31T01:22:58.724Z,2.95
2022-08-31T01:25:32.554Z,2.17
2022-08-31T01:28:05.208Z,2.55
2022-08-31T01:30:32.836Z,2.75
2022-08-31T01:33:00.467Z,2.05
2022-08-31T01:35:27.865Z,3.00
2022-08-31T01:37:56.674Z,2.45
2022-08-31T01:40:50.056Z,2.70
2022-08-31T01:43:17.547Z,2.85
2022-08-31T01:45:45.011Z,3.17
2022-08-31T01:48:12.849Z,2.83
2022-08-31T01:50:40.302Z,2.50
2022-08-31T01:53:08.051Z,2.90
2022-08-31T01:55:35.722Z,2.90
2022-08-31T01:58:03.162Z,2.90
2022-08-31T02:00:39.589Z,2.65
2022-08-31T02:03:08.040Z,2.60
2022-08-31T02:05:36.912Z,2.75
2022-08-31T02:08:06.850Z,2.70
2022-08-31T02:10:34.428Z,2.80
2022-08-31T02:13:01.716Z,3.25
2022-08-31T02:17:59.860Z,2.45
2022-08-31T02:20:27.499Z,2.58
2022-08-31T02:22:56.439Z,2.90
2022-08-31T02:25:24.019Z,2.97
2022-08-31T02:27:51.799Z,2.92
2022-08-31T02:30:19.403Z,3.20
2022-08-31T02:32:46.815Z,2.80
2022-08-31T02:35:14.179Z,3.60
2022-08-31T02:37:42.153Z,3.08
2022-08-31T02:40:12.298Z,3.38
2022-08-31T02:42:52.674Z,2.90
2022-08-31T02:45:22.784Z,3.38
2022-08-31T02:47:50.199Z,3.20
2022-08-31T02:50:28.117Z,3.25
2022-08-31T02:52:56.888Z,2.97
2022-08-31T02:55:26.130Z,3.08
2022-08-31T02:57:53.693Z,2.88
2022-08-31T03:00:23.202Z,3.30
2022-08-31T03:02:51.280Z,3.22
2022-08-31T03:05:20.782Z,3.40
2022-08-31T03:07:49.841Z,3.00
2022-08-31T03:10:20.462Z,2.95
2022-08-31T03:12:49.026Z,3.28
2022-08-31T03:15:17.951Z,2.72
2022-08-31T03:17:46.653Z,3.42
2022-08-31T03:20:15.365Z,3.13
2022-08-31T03:22:45.688Z,3.42
2022-08-31T03:25:14.204Z,3.10
2022-08-31T03:27:41.490Z,3.20
2022-08-31T03:30:11.508Z,2.80
2022-08-31T03:32:41.394Z,3.25
2022-08-31T03:35:09.084Z,3.22
2022-08-31T03:37:38.218Z,3.50
2022-08-31T03:40:06.514Z,3.05
2022-08-31T03:42:35.333Z,3.58
2022-08-31T03:45:03.517Z,3.40
2022-08-31T03:47:33.804Z,3.30
2022-08-31T03:50:01.298Z,3.60
2022-08-31T03:52:37.879Z,2.78
2022-08-31T03:55:12.640Z,3.80
2022-08-31T03:57:41.635Z,3.27
2022-08-31T04:00:10.023Z,2.92
2022-08-31T04:02:43.790Z,3.20
2022-08-31T04:05:31.537Z,2.97
2022-08-31T04:08:18.201Z,3.72
2022-08-31T04:10:49.769Z,3.67
2022-08-31T04:13:37.852Z,3.33
2022-08-31T04:16:23.994Z,3.65
2022-08-31T04:18:54.385Z,3.25
2022-08-31T04:21:25.341Z,3.10
2022-08-31T04:26:23.820Z,3.30
2022-08-31T04:28:51.593Z,3.70
2022-08-31T04:31:20.544Z,3.38
2022-08-31T04:33:48.321Z,3.47
2022-08-31T04:36:21.389Z,3.35
2022-08-31T04:38:53.262Z,3.40
2022-08-31T04:41:22.577Z,3.63
2022-08-31T04:43:54.533Z,3.72
2022-08-31T04:46:22.515Z,3.25
2022-08-31T04:48:50.300Z,4.22
2022-08-31T04:51:37.913Z,3.40
2022-08-31T04:54:08.481Z,3.75
2022-08-31T04:56:39.755Z,3.10
2022-08-31T04:59:09.497Z,3.22
2022-08-31T05:01:45.513Z,3.55
2022-08-31T05:04:31.912Z,4.00
2022-08-31T05:06:59.603Z,3.28
2022-08-31T05:09:27.247Z,3.60
2022-08-31T05:11:56.319Z,3.33
2022-08-31T05:14:25.965Z,3.60
2022-08-31T05:17:01.259Z,3.33
2022-08-31T05:19:31.982Z,3.90
2022-08-31T05:21:59.728Z,3.78
2022-08-31T05:24:27.602Z,3.60
2022-08-31T05:26:56.308Z,3.35
2022-08-31T05:29:25.364Z,3.13
2022-08-31T05:32:07.621Z,3.35
2022-08-31T05:34:34.925Z,3.80
2022-08-31T05:37:03.036Z,4.13
2022-08-31T05:39:33.439Z,4.50
2022-08-31T05:42:00.912Z,4.07
2022-08-31T05:44:29.579Z,3.72
2022-08-31T05:47:03.414Z,3.72
2022-08-31T05:49:32.327Z,3.85
2022-08-31T05:52:05.321Z,3.60
2022-08-31T05:54:36.201Z,4.30
2022-08-31T05:57:04.741Z,3.90
2022-08-31T05:59:32.168Z,3.97
2022-08-31T06:02:00.770Z,4.40
2022-08-31T06:04:32.399Z,4.00
2022-08-31T06:06:59.819Z,4.05
2022-08-31T06:09:33.194Z,4.28
2022-08-31T06:12:03.688Z,3.95
2022-08-31T06:14:32.008Z,3.95
2022-08-31T06:17:00.012Z,4.25
2022-08-31T06:19:27.487Z,3.80
2022-08-31T06:21:55.708Z,3.95
2022-08-31T06:24:25.519Z,4.03
2022-08-31T06:26:59.102Z,4.18
2022-08-31T06:29:33.216Z,4.10
2022-08-31T06:32:06.172Z,4.28
2022-08-31T06:34:34.697Z,4.18
2022-08-31T06:37:18.258Z,3.72
2022-08-31T06:40:14.626Z,3.97
2022-08-31T06:42:55.488Z,4.00
2022-08-31T06:45:32.403Z,3.40
2022-08-31T06:48:36.135Z,4.05
2022-08-31T06:51:04.213Z,4.35
2022-08-31T06:53:31.771Z,4.38
2022-08-31T06:56:16.440Z,4.72
2022-08-31T06:59:07.866Z,4.43
2022-08-31T07:01:56.022Z,4.50
2022-08-31T07:04:35.732Z,4.32
2022-08-31T07:07:03.603Z,4.63
2022-08-31T07:09:31.665Z,4.28
2022-08-31T07:11:59.064Z,4.32
2022-08-31T07:14:27.513Z,4.53
2022-08-31T07:16:58.437Z,4.50
2022-08-31T07:19:26.977Z,4.82
2022-08-31T07:22:01.177Z,4.80
2022-08-31T07:24:33.347Z,4.55
2022-08-31T07:27:04.521Z,5.10
2022-08-31T07:30:00.367Z,4.57
2022-08-31T07:32:32.466Z,4.72
2022-08-31T07:35:01.202Z,4.80
2022-08-31T07:40:41.764Z,5.25
2022-08-31T07:43:13.861Z,5.25
2022-08-31T07:45:42.017Z,5.18
2022-08-31T07:48:10.799Z,5.20
2022-08-31T07:50:48.346Z,4.90
2022-08-31T07:53:29.305Z,5.93
2022-08-31T07:56:19.180Z,5.38
2022-08-31T07:58:49.606Z,4.80
2022-08-31T08:01:19.517Z,5.03
2022-08-31T08:03:47.467Z,5.22
2022-08-31T08:06:34.197Z,4.90
2022-08-31T08:09:24.899Z,5.65
2022-08-31T08:12:13.286Z,5.32
2022-08-31T08:14:57.939Z,5.35
2022-08-31T08:17:41.843Z,5.80
2022-08-31T08:20:13.914Z,5.47
2022-08-31T08:22:55.669Z,5.75
2022-08-31T08:25:35.076Z,5.90
2022-08-31T08:28:22.733Z,6.07
2022-08-31T08:30:55.219Z,5.80
2022-08-31T08:33:25.273Z,5.25
2022-08-31T08:35:56.859Z,5.63
2022-08-31T08:38:25.494Z,5.18
2022-08-31T08:40:53.284Z,5.00
2022-08-31T08:43:26.522Z,4.93
2022-08-31T08:45:56.714Z,4.55
2022-08-31T08:48:32.748Z,5.68
2022-08-31T08:51:02.257Z,5.97
2022-08-31T08:53:43.118Z,5.45
2022-08-31T08:56:32.931Z,5.07
2022-08-31T08:59:02.356Z,5.47
2022-08-31T09:01:37.408Z,6.15
2022-08-31T09:04:20.595Z,6.68
2022-08-31T09:07:31.009Z,6.22
2022-08-31T09:10:19.697Z,5.20
2022-08-31T09:12:58.054Z,5.40
2022-08-31T09:15:31.994Z,5.82
2022-08-31T09:18:26.397Z,6.00
2022-08-31T09:23:38.009Z,6.18
2022-08-31T09:26:08.436Z,5.80
2022-08-31T09:28:54.772Z,5.40
2022-08-31T09:31:37.415Z,5.78
2022-08-31T09:34:29.558Z,6.30
2022-08-31T09:37:20.037Z,6.10
2022-08-31T09:39:49.263Z,6.07
2022-08-31T09:42:20.163Z,5.35
2022-08-31T09:44:49.860Z,6.30
2022-08-31T09:47:48.353Z,5.70
2022-08-31T09:50:32.837Z,5.63
2022-08-31T09:53:42.366Z,5.93
2022-08-31T09:56:15.838Z,5.22
2022-08-31T09:58:45.752Z,5.90
2022-08-31T10:01:18.010Z,5.60
2022-08-31T10:03:47.677Z,5.85
2022-08-31T10:06:37.568Z,4.78
2022-08-31T10:09:12.722Z,4.95
2022-08-31T10:11:41.021Z,4.78
2022-08-31T10:14:24.458Z,5.25
2022-08-31T10:17:04.869Z,4.82
2022-08-31T10:19:56.073Z,4.43
2022-08-31T10:22:30.517Z,5.03
2022-08-31T10:25:06.880Z,5.20
2022-08-31T10:27:40.379Z,7.40
2022-08-31T10:30:32.848Z,8.27
2022-08-31T10:33:10.724Z,13.77
2022-08-31T10:35:56.560Z,5.40
2022-08-31T10:38:30.905Z,4.00
2022-08-31T10:41:12.025Z,9.50
2022-08-31T10:44:00.148Z,5.70
2022-08-31T10:46:29.135Z,5.40
2022-08-31T10:48:57.768Z,4.82
2022-08-31T10:51:31.220Z,4.85
2022-08-31T10:54:07.330Z,5.00
2022-08-31T10:56:50.723Z,4.90
2022-08-31T10:59:59.394Z,4.80
2022-08-31T11:02:51.102Z,5.57
2022-08-31T11:05:29.753Z,4.88
2022-08-31T11:07:58.841Z,5.00
2022-08-31T11:10:43.230Z,4.47
2022-08-31T11:13:26.021Z,4.88
2022-08-31T11:16:17.542Z,4.85
2022-08-31T11:19:17.564Z,4.40
2022-08-31T11:22:00.132Z,5.18
2022-08-31T11:25:06.188Z,5.15
2022-08-31T11:27:40.466Z,5.45
2022-08-31T11:30:29.047Z,5.20
2022-08-31T11:33:07.772Z,6.40
2022-08-31T11:36:07.663Z,5.82
2022-08-31T11:38:50.171Z,5.65
2022-08-31T11:41:36.303Z,6.00
2022-08-31T11:44:05.102Z,5.53
2022-08-31T11:46:40.033Z,4.78
2022-08-31T11:49:07.850Z,5.25
2022-08-31T11:51:55.707Z,4.63
2022-08-31T11:54:36.268Z,5.55
2022-08-31T11:57:05.970Z,4.75
2022-08-31T11:59:35.310Z,6.78
2022-08-31T12:02:21.556Z,4.90
2022-08-31T12:04:52.070Z,4.60
2022-08-31T12:07:28.361Z,5.00
2022-08-31T12:10:22.040Z,4.80
2022-08-31T12:13:09.627Z,4.95
2022-08-31T12:15:58.721Z,4.68
2022-08-31T12:18:45.292Z,5.13
2022-08-31T12:21:44.574Z,4.53
2022-08-31T12:24:30.666Z,4.50
2022-08-31T12:27:00.768Z,4.57
2022-08-31T12:29:31.084Z,4.60
2022-08-31T12:32:21.977Z,4.38
2022-08-31T12:35:14.303Z,4.32
2022-08-31T12:37:41.643Z,5.07
2022-08-31T12:40:17.451Z,4.63
2022-08-31T12:42:54.363Z,4.88
2022-08-31T12:45:59.902Z,4.50
2022-08-31T12:48:38.363Z,5.20
2022-08-31T12:51:30.206Z,4.15
2022-08-31T12:54:13.668Z,4.57
2022-08-31T12:56:51.913Z,4.25
2022-08-31T12:59:51.303Z,4.68
2022-08-31T13:02:20.519Z,4.95
2022-08-31T13:04:48.127Z,4.55
2022-08-31T13:07:18.085Z,4.85
2022-08-31T13:12:23.240Z,4.53
2022-08-31T13:14:50.534Z,4.20
2022-08-31T13:17:23.953Z,4.57
2022-08-31T13:19:52.347Z,4.30
2022-08-31T13:22:32.511Z,4.35
2022-08-31T13:25:41.764Z,4.30
2022-08-31T13:28:13.698Z,5.37
2022-08-31T13:30:54.934Z,4.40
2022-08-31T13:33:33.948Z,5.22
2022-08-31T13:36:03.814Z,4.60
2022-08-31T13:38:42.597Z,4.40
2022-08-31T13:41:24.514Z,4.90
2022-08-31T13:44:02.563Z,4.28
2022-08-31T13:46:42.791Z,4.67
2022-08-31T13:49:44.243Z,4.57
2022-08-31T13:52:21.777Z,4.43
2022-08-31T13:55:36.036Z,4.10
2022-08-31T13:58:23.217Z,4.65
2022-08-31T14:00:55.806Z,4.55
2022-08-31T14:03:35.005Z,4.50
2022-08-31T14:06:23.871Z,3.97
2022-08-31T14:08:54.803Z,4.30
2022-08-31T14:11:22.370Z,4.07
2022-08-31T14:13:50.408Z,4.18
2022-08-31T14:16:30.710Z,4.43
2022-08-31T14:18:58.860Z,4.07
2022-08-31T14:21:28.943Z,3.92
2022-08-31T14:24:02.613Z,4.90
2022-08-31T14:26:41.469Z,4.78
2022-08-31T14:29:12.708Z,4.85
2022-08-31T14:31:52.490Z,3.90
2022-08-31T14:37:06.644Z,4.88
2022-08-31T14:39:47.745Z,4.38
2022-08-31T14:42:28.889Z,4.60
2022-08-31T14:45:03.942Z,4.85
2022-08-31T14:47:34.226Z,4.47
2022-08-31T14:50:08.029Z,4.22
2022-08-31T14:52:38.712Z,4.43
2022-08-31T14:55:09.133Z,4.20
2022-08-31T14:57:39.395Z,4.00
2022-08-31T15:00:08.153Z,4.10
2022-08-31T15:02:36.190Z,4.13
2022-08-31T15:05:07.204Z,4.00
2022-08-31T15:07:37.701Z,4.03
2022-08-31T15:10:07.517Z,3.90
2022-08-31T15:12:35.763Z,4.13
2022-08-31T15:15:03.120Z,4.20
2022-08-31T15:17:33.861Z,4.03
2022-08-31T15:20:03.191Z,4.50
2022-08-31T15:22:31.327Z,3.87
2022-08-31T15:24:59.234Z,3.75
2022-08-31T15:27:30.721Z,4.68
2022-08-31T15:30:08.099Z,4.25
2022-08-31T15:32:39.673Z,4.00
2022-08-31T15:35:07.546Z,4.22
2022-08-31T15:37:34.845Z,3.90
2022-08-31T15:40:04.208Z,3.70
2022-08-31T15:42:32.270Z,3.63
2022-08-31T15:45:00.383Z,4.97
2022-08-31T15:47:49.544Z,4.43
2022-08-31T15:50:20.290Z,4.10
2022-08-31T15:52:49.736Z,4.35
2022-08-31T15:55:23.487Z,4.28
2022-08-31T15:57:54.234Z,3.80
2022-08-31T16:00:23.846Z,4.15
2022-08-31T16:02:57.540Z,4.55
2022-08-31T16:05:30.354Z,4.10
2022-08-31T16:08:00.530Z,4.30
2022-08-31T16:10:28.219Z,3.65
2022-08-31T16:12:55.480Z,3.80
2022-08-31T16:15:24.894Z,3.83
2022-08-31T16:20:27.536Z,4.43
2022-08-31T16:22:55.736Z,3.92
2022-08-31T16:25:25.284Z,4.18
2022-08-31T16:27:58.516Z,4.00
2022-08-31T16:30:26.154Z,4.22
2022-08-31T16:32:54.099Z,3.88
2022-08-31T16:35:21.410Z,3.70
2022-08-31T16:37:50.487Z,4.43
2022-08-31T16:40:18.861Z,4.07
2022-08-31T16:42:46.515Z,4.05
2022-08-31T16:45:13.975Z,4.00
2022-08-31T16:47:41.373Z,4.20
2022-08-31T16:50:09.639Z,3.85
2022-08-31T16:52:37.287Z,3.90
2022-08-31T16:55:05.050Z,3.83
2022-08-31T16:57:32.802Z,3.92
2022-08-31T17:00:00.255Z,4.30
2022-08-31T17:02:28.093Z,3.88
2022-08-31T17:05:00.521Z,3.97
2022-08-31T17:07:28.987Z,4.60
2022-08-31T17:10:06.590Z,4.20
2022-08-31T17:12:33.954Z,4.38
2022-08-31T17:15:03.644Z,3.80
2022-08-31T17:17:32.789Z,4.35
2022-08-31T17:20:00.738Z,4.53
2022-08-31T17:22:32.886Z,4.03
2022-08-31T17:25:02.744Z,4.57
2022-08-31T17:27:33.217Z,4.65
2022-08-31T17:30:05.072Z,5.43
2022-08-31T17:32:35.508Z,5.15
2022-08-31T17:35:04.170Z,4.68
2022-08-31T17:37:36.552Z,4.72
2022-08-31T17:40:08.028Z,4.72
2022-08-31T17:42:36.061Z,5.28
2022-08-31T17:45:08.628Z,6.30
2022-08-31T17:47:36.082Z,4.35
2022-08-31T17:50:04.496Z,4.93
2022-08-31T17:52:31.771Z,4.88
2022-08-31T17:55:01.834Z,4.78
2022-08-31T17:57:29.707Z,5.05
2022-08-31T17:59:57.198Z,4.45
2022-08-31T18:02:32.510Z,5.00
2022-08-31T18:05:01.127Z,4.80
2022-08-31T18:07:29.135Z,4.40
2022-08-31T18:09:56.692Z,4.57
2022-08-31T18:12:25.700Z,4.70
2022-08-31T18:14:54.064Z,5.30
2022-08-31T18:17:22.398Z,5.15
2022-08-31T18:19:49.900Z,5.20
2022-08-31T18:22:18.426Z,5.28
2022-08-31T18:24:45.774Z,4.68
2022-08-31T18:27:15.453Z,4.93
2022-08-31T18:29:44.241Z,4.78
2022-08-31T18:32:11.755Z,4.97
2022-08-31T18:34:41.918Z,4.15
2022-08-31T18:37:10.733Z,5.22
2022-08-31T18:39:59.723Z,5.07
2022-08-31T18:42:46.321Z,5.10
2022-08-31T18:45:16.861Z,4.30
2022-08-31T18:48:20.678Z,4.93
2022-08-31T18:50:48.486Z,5.05
2022-08-31T18:53:28.542Z,4.47
2022-08-31T18:56:06.315Z,5.22
2022-08-31T18:58:33.665Z,5.03
2022-08-31T19:01:01.269Z,5.20
2022-08-31T19:03:28.991Z,6.50
2022-08-31T19:05:57.009Z,7.38
2022-08-31T19:08:26.134Z,5.60
2022-08-31T19:10:57.292Z,5.70
2022-08-31T19:13:28.555Z,4.95
2022-08-31T19:16:00.616Z,4.88
2022-08-31T19:18:29.715Z,5.18
2022-08-31T19:20:57.081Z,4.93
2022-08-31T19:23:24.613Z,5.40
2022-08-31T19:25:52.218Z,6.03
2022-08-31T19:28:19.551Z,5.07
2022-08-31T19:30:48.590Z,6.32
2022-08-31T19:33:16.306Z,6.15
2022-08-31T19:35:44.360Z,5.90
2022-08-31T19:38:12.062Z,5.60
2022-08-31T19:40:40.119Z,5.20
2022-08-31T19:45:55.199Z,5.18
2022-08-31T19:48:23.750Z,5.82
2022-08-31T19:50:52.045Z,5.45
2022-08-31T19:53:21.396Z,5.65
2022-08-31T19:55:50.768Z,5.30
2022-08-31T19:58:26.486Z,6.63
2022-08-31T20:01:00.711Z,5.22
2022-08-31T20:03:31.203Z,5.55
2022-08-31T20:05:59.890Z,5.65
2022-08-31T20:08:27.261Z,5.85
2022-08-31T20:10:54.516Z,7.00
2022-08-31T20:13:24.166Z,5.72
2022-08-31T20:15:53.077Z,5.68
2022-08-31T20:18:20.882Z,5.45
2022-08-31T20:20:50.801Z,5.03
2022-08-31T20:25:50.156Z,5.90
2022-08-31T20:28:21.761Z,5.65
2022-08-31T20:30:49.177Z,5.38
2022-08-31T20:33:16.751Z,5.55
2022-08-31T20:35:47.602Z,5.07
2022-08-31T20:38:16.812Z,5.90
2022-08-31T20:40:47.171Z,7.45
2022-08-31T20:43:14.748Z,5.28
2022-08-31T20:45:42.434Z,5.10
2022-08-31T20:48:29.037Z,5.22
2022-08-31T20:50:56.541Z,5.25
2022-08-31T20:53:24.887Z,6.20
2022-08-31T20:56:06.971Z,5.07
2022-08-31T20:58:34.239Z,5.70
2022-08-31T21:01:07.846Z,5.00
2022-08-31T21:03:35.151Z,5.70
2022-08-31T21:06:08.245Z,5.88
2022-08-31T21:08:38.257Z,5.32
2022-08-31T21:13:39.970Z,5.18
2022-08-31T21:16:07.419Z,5.35
2022-08-31T21:18:35.229Z,5.53
2022-08-31T21:21:08.311Z,5.47
2022-08-31T21:23:37.291Z,5.82
2022-08-31T21:26:08.545Z,5.28
2022-08-31T21:28:39.235Z,6.18
2022-08-31T21:31:16.417Z,5.30
2022-08-31T21:33:57.778Z,5.43
2022-08-31T21:36:26.679Z,5.35
2022-08-31T21:38:56.318Z,5.30
2022-08-31T21:41:26.682Z,5.85
2022-08-31T21:43:55.687Z,5.22
2022-08-31T21:46:28.333Z,5.20
2022-08-31T21:48:57.761Z,5.60
2022-08-31T21:51:30.754Z,5.47
2022-08-31T21:54:01.364Z,5.78
2022-08-31T21:56:31.588Z,4.95
2022-08-31T21:58:59.776Z,5.15
2022-08-31T22:01:29.446Z,6.45
2022-08-31T22:06:31.431Z,5.32
2022-08-31T22:09:03.260Z,6.03
2022-08-31T22:11:32.972Z,5.80
2022-08-31T22:14:00.412Z,4.88
2022-08-31T22:16:27.909Z,5.72
2022-08-31T22:19:02.078Z,5.30
2022-08-31T22:21:34.166Z,5.70
2022-08-31T22:24:09.277Z,5.40
2022-08-31T22:26:40.090Z,6.00
2022-08-31T22:29:09.554Z,5.60
2022-08-31T22:31:38.254Z,5.43
2022-08-31T22:34:10.224Z,5.43
2022-08-31T22:36:38.148Z,5.35
2022-08-31T22:39:10.538Z,5.63
2022-08-31T22:41:39.522Z,5.15
2022-08-31T22:44:09.590Z,5.53
2022-08-31T22:49:06.140Z,5.90
2022-08-31T22:51:38.172Z,5.68
2022-08-31T22:54:06.934Z,5.90
2022-08-31T22:56:35.874Z,5.10
2022-08-31T22:59:06.848Z,6.05
2022-08-31T23:01:38.195Z,5.80
2022-08-31T23:04:07.187Z,5.82
2022-08-31T23:06:36.197Z,5.68
2022-08-31T23:09:06.967Z,5.85
2022-08-31T23:11:34.640Z,6.25
2022-08-31T23:14:07.266Z,6.38
2022-08-31T23:16:42.234Z,5.50
2022-08-31T23:19:21.684Z,6.18
2022-08-31T23:21:55.048Z,6.00
2022-08-31T23:24:28.746Z,5.70
2022-08-31T23:27:01.690Z,6.30
2022-08-31T23:29:47.046Z,6.10
2022-08-31T23:32:18.088Z,5.85
2022-08-31T23:34:46.811Z,6.25
2022-08-31T23:37:17.385Z,5.68
2022-08-31T23:39:46.262Z,5.60
2022-08-31T23:42:15.594Z,6.10
2022-08-31T23:44:44.707Z,6.00
2022-08-31T23:47:14.890Z,5.93
2022-08-31T23:52:12.022Z,6.10
2022-08-31T23:54:40.116Z,6.28
2022-08-31T23:57:08.431Z,6.50
2022-08-31T23:59:52.240Z,6.20
